sensor_id;sensor_type;location;lat;lon;timestamp;pressure;altitude;pressure_sealevel;temperature;humidity
62789;BME280;66401;42.016;21.454;2023-04-25T00:01:34;97585.13;;;11.95;85.07
62789;BME280;66401;42.016;21.454;2023-04-25T00:04:01;97575.34;;;12.09;85.76
62789;BME280;66401;42.016;21.454;2023-04-25T00:06:28;97587.09;;;12.18;85.93
62789;BME280;66401;42.016;21.454;2023-04-25T00:08:55;97591.66;;;12.22;85.73
62789;BME280;66401;42.016;21.454;2023-04-25T00:11:22;97589.03;;;12.22;85.15
62789;BME280;66401;42.016;21.454;2023-04-25T00:13:48;97587.22;;;12.23;85.61
62789;BME280;66401;42.016;21.454;2023-04-25T00:16:15;97587.81;;;12.25;85.08
62789;BME280;66401;42.016;21.454;2023-04-25T00:18:43;97591.81;;;12.27;84.34
62789;BME280;66401;42.016;21.454;2023-04-25T00:21:09;97592.84;;;12.26;84.07
62789;BME280;66401;42.016;21.454;2023-04-25T00:23:35;97587.38;;;12.10;86.55
62789;BME280;66401;42.016;21.454;2023-04-25T00:26:04;97592.84;;;12.08;85.83
62789;BME280;66401;42.016;21.454;2023-04-25T00:28:29;97596.44;;;11.89;86.05
62789;BME280;66401;42.016;21.454;2023-04-25T00:30:55;97595.19;;;11.66;87.65
62789;BME280;66401;42.016;21.454;2023-04-25T00:33:21;97596.00;;;11.92;86.11
62789;BME280;66401;42.016;21.454;2023-04-25T00:35:46;97584.63;;;12.04;84.85
62789;BME280;66401;42.016;21.454;2023-04-25T00:38:12;97557.09;;;11.90;85.28
62789;BME280;66401;42.016;21.454;2023-04-25T00:40:37;97587.75;;;12.13;85.43
62789;BME280;66401;42.016;21.454;2023-04-25T00:43:04;97570.84;;;12.16;84.80
62789;BME280;66401;42.016;21.454;2023-04-25T00:45:29;97575.13;;;12.10;84.79
62789;BME280;66401;42.016;21.454;2023-04-25T00:47:56;97573.25;;;11.81;86.01
62789;BME280;66401;42.016;21.454;2023-04-25T00:50:22;97571.00;;;12.02;85.03
62789;BME280;66401;42.016;21.454;2023-04-25T00:52:48;97579.72;;;11.71;86.63
62789;BME280;66401;42.016;21.454;2023-04-25T00:55:13;97578.94;;;11.46;88.41
62789;BME280;66401;42.016;21.454;2023-04-25T00:57:41;97568.63;;;11.76;86.89
62789;BME280;66401;42.016;21.454;2023-04-25T01:00:08;97562.88;;;11.49;88.69
62789;BME280;66401;42.016;21.454;2023-04-25T01:02:35;97560.81;;;11.33;89.38
62789;BME280;66401;42.016;21.454;2023-04-25T01:05:02;97559.97;;;11.57;88.24
62789;BME280;66401;42.016;21.454;2023-04-25T01:07:28;97573.66;;;11.78;88.15
62789;BME280;66401;42.016;21.454;2023-04-25T01:09:53;97563.44;;;11.94;87.29
62789;BME280;66401;42.016;21.454;2023-04-25T01:12:19;97553.53;;;12.03;86.81
62789;BME280;66401;42.016;21.454;2023-04-25T01:14:45;97515.34;;;11.90;85.56
62789;BME280;66401;42.016;21.454;2023-04-25T01:17:11;97550.91;;;12.03;86.67
62789;BME280;66401;42.016;21.454;2023-04-25T01:19:37;97548.13;;;11.61;88.57
62789;BME280;66401;42.016;21.454;2023-04-25T01:22:03;97551.06;;;11.90;86.84
62789;BME280;66401;42.016;21.454;2023-04-25T01:24:30;97557.59;;;11.81;88.32
62789;BME280;66401;42.016;21.454;2023-04-25T01:26:56;97560.31;;;11.86;88.23
62789;BME280;66401;42.016;21.454;2023-04-25T01:29:23;97540.06;;;11.88;86.77
62789;BME280;66401;42.016;21.454;2023-04-25T01:31:51;97546.13;;;12.00;87.19
62789;BME280;66401;42.016;21.454;2023-04-25T01:34:18;97550.44;;;11.69;88.05
62789;BME280;66401;42.016;21.454;2023-04-25T01:36:43;97543.06;;;11.85;86.91
62789;BME280;66401;42.016;21.454;2023-04-25T01:39:09;97541.38;;;11.97;87.29
62789;BME280;66401;42.016;21.454;2023-04-25T01:41:35;97531.00;;;11.90;86.35
62789;BME280;66401;42.016;21.454;2023-04-25T01:44:01;97528.50;;;11.95;86.50
62789;BME280;66401;42.016;21.454;2023-04-25T01:46:27;97539.56;;;11.54;88.11
62789;BME280;66401;42.016;21.454;2023-04-25T01:48:53;97520.81;;;11.21;90.01
62789;BME280;66401;42.016;21.454;2023-04-25T01:51:19;97543.31;;;11.40;89.35
62789;BME280;66401;42.016;21.454;2023-04-25T01:53:44;97536.16;;;11.54;89.13
62789;BME280;66401;42.016;21.454;2023-04-25T01:56:10;97528.38;;;11.47;88.25
62789;BME280;66401;42.016;21.454;2023-04-25T01:58:35;97526.00;;;11.64;86.79
62789;BME280;66401;42.016;21.454;2023-04-25T02:01:01;97541.84;;;11.44;88.22
62789;BME280;66401;42.016;21.454;2023-04-25T02:03:27;97539.31;;;11.56;88.00
62789;BME280;66401;42.016;21.454;2023-04-25T02:05:52;97538.63;;;11.49;89.10
62789;BME280;66401;42.016;21.454;2023-04-25T02:08:18;97524.75;;;11.48;89.38
62789;BME280;66401;42.016;21.454;2023-04-25T02:10:44;97531.59;;;11.67;88.53
62789;BME280;66401;42.016;21.454;2023-04-25T02:13:09;97517.63;;;11.62;89.09
62789;BME280;66401;42.016;21.454;2023-04-25T02:15:37;97531.41;;;11.44;89.72
62789;BME280;66401;42.016;21.454;2023-04-25T02:18:03;97524.63;;;11.61;88.08
62789;BME280;66401;42.016;21.454;2023-04-25T02:20:29;97521.94;;;11.50;89.77
62789;BME280;66401;42.016;21.454;2023-04-25T02:22:55;97524.78;;;11.66;87.66
62789;BME280;66401;42.016;21.454;2023-04-25T02:25:21;97533.63;;;11.65;88.93
62789;BME280;66401;42.016;21.454;2023-04-25T02:27:47;97521.88;;;11.74;87.56
62789;BME280;66401;42.016;21.454;2023-04-25T02:30:13;97513.50;;;11.72;87.42
62789;BME280;66401;42.016;21.454;2023-04-25T02:32:39;97523.66;;;11.81;86.62
62789;BME280;66401;42.016;21.454;2023-04-25T02:35:06;97533.44;;;11.85;87.60
62789;BME280;66401;42.016;21.454;2023-04-25T02:37:33;97533.66;;;11.84;87.16
62789;BME280;66401;42.016;21.454;2023-04-25T02:39:59;97533.00;;;11.45;89.54
62789;BME280;66401;42.016;21.454;2023-04-25T02:42:24;97537.47;;;11.38;89.76
62789;BME280;66401;42.016;21.454;2023-04-25T02:44:50;97526.03;;;11.21;90.37
62789;BME280;66401;42.016;21.454;2023-04-25T02:47:15;97532.50;;;11.11;90.70
62789;BME280;66401;42.016;21.454;2023-04-25T02:49:41;97536.81;;;11.24;91.00
62789;BME280;66401;42.016;21.454;2023-04-25T02:52:06;97537.72;;;11.11;91.80
62789;BME280;66401;42.016;21.454;2023-04-25T02:54:32;97526.22;;;11.19;90.81
62789;BME280;66401;42.016;21.454;2023-04-25T02:56:58;97538.66;;;11.42;90.05
62789;BME280;66401;42.016;21.454;2023-04-25T02:59:23;97530.38;;;11.27;90.74
62789;BME280;66401;42.016;21.454;2023-04-25T03:01:49;97529.16;;;11.29;90.74
62789;BME280;66401;42.016;21.454;2023-04-25T03:04:14;97539.03;;;11.45;89.25
62789;BME280;66401;42.016;21.454;2023-04-25T03:06:40;97530.81;;;11.24;91.20
62789;BME280;66401;42.016;21.454;2023-04-25T03:09:06;97537.91;;;11.35;90.30
62789;BME280;66401;42.016;21.454;2023-04-25T03:11:31;97530.94;;;11.54;89.25
62789;BME280;66401;42.016;21.454;2023-04-25T03:13:57;97542.34;;;11.34;90.10
62789;BME280;66401;42.016;21.454;2023-04-25T03:16:23;97542.34;;;11.34;90.12
62789;BME280;66401;42.016;21.454;2023-04-25T03:18:48;97534.41;;;11.23;91.39
62789;BME280;66401;42.016;21.454;2023-04-25T03:21:15;97530.63;;;11.43;90.27
62789;BME280;66401;42.016;21.454;2023-04-25T03:23:44;97543.16;;;11.53;89.25
62789;BME280;66401;42.016;21.454;2023-04-25T03:26:09;97528.53;;;11.52;88.96
62789;BME280;66401;42.016;21.454;2023-04-25T03:28:35;97535.22;;;11.66;88.53
62789;BME280;66401;42.016;21.454;2023-04-25T03:31:00;97533.91;;;11.75;88.03
62789;BME280;66401;42.016;21.454;2023-04-25T03:33:26;97523.00;;;11.85;88.14
62789;BME280;66401;42.016;21.454;2023-04-25T03:35:51;97522.59;;;11.88;88.35
62789;BME280;66401;42.016;21.454;2023-04-25T03:38:17;97515.91;;;11.92;87.43
62789;BME280;66401;42.016;21.454;2023-04-25T03:40:43;97521.06;;;11.81;88.96
62789;BME280;66401;42.016;21.454;2023-04-25T03:43:08;97524.13;;;11.53;89.20
62789;BME280;66401;42.016;21.454;2023-04-25T03:45:34;97522.47;;;11.58;89.39
62789;BME280;66401;42.016;21.454;2023-04-25T03:47:59;97507.91;;;11.69;89.01
62789;BME280;66401;42.016;21.454;2023-04-25T03:50:25;97506.38;;;11.61;89.03
62789;BME280;66401;42.016;21.454;2023-04-25T03:52:50;97510.44;;;11.39;90.94
62789;BME280;66401;42.016;21.454;2023-04-25T03:55:16;97508.47;;;11.53;88.90
62789;BME280;66401;42.016;21.454;2023-04-25T03:57:41;97500.53;;;11.23;90.64
62789;BME280;66401;42.016;21.454;2023-04-25T04:00:07;97505.84;;;11.09;91.87
62789;BME280;66401;42.016;21.454;2023-04-25T04:02:33;97500.59;;;10.91;92.00
62789;BME280;66401;42.016;21.454;2023-04-25T04:05:00;97510.91;;;11.04;92.15
62789;BME280;66401;42.016;21.454;2023-04-25T04:07:25;97499.34;;;11.18;89.96
62789;BME280;66401;42.016;21.454;2023-04-25T04:09:51;97503.19;;;11.16;89.61
62789;BME280;66401;42.016;21.454;2023-04-25T04:12:16;97509.94;;;10.42;92.51
62789;BME280;66401;42.016;21.454;2023-04-25T04:14:42;97525.00;;;10.20;94.13
62789;BME280;66401;42.016;21.454;2023-04-25T04:17:07;97530.59;;;10.30;93.84
62789;BME280;66401;42.016;21.454;2023-04-25T04:19:33;97520.97;;;10.38;94.51
62789;BME280;66401;42.016;21.454;2023-04-25T04:21:58;97505.44;;;10.56;94.46
62789;BME280;66401;42.016;21.454;2023-04-25T04:24:24;97506.22;;;10.88;93.13
62789;BME280;66401;42.016;21.454;2023-04-25T04:26:49;97511.69;;;10.80;92.41
62789;BME280;66401;42.016;21.454;2023-04-25T04:29:16;97515.88;;;10.49;94.06
62789;BME280;66401;42.016;21.454;2023-04-25T04:31:48;97509.94;;;10.74;93.70
62789;BME280;66401;42.016;21.454;2023-04-25T04:34:13;97516.66;;;11.13;91.40
62789;BME280;66401;42.016;21.454;2023-04-25T04:36:39;97531.59;;;11.49;90.62
62789;BME280;66401;42.016;21.454;2023-04-25T04:39:05;97530.03;;;11.85;89.23
62789;BME280;66401;42.016;21.454;2023-04-25T04:41:31;97518.16;;;11.89;88.63
62789;BME280;66401;42.016;21.454;2023-04-25T04:43:57;97522.78;;;12.05;87.05
62789;BME280;66401;42.016;21.454;2023-04-25T04:46:23;97511.78;;;11.85;88.36
62789;BME280;66401;42.016;21.454;2023-04-25T04:48:49;97523.47;;;11.75;89.76
62789;BME280;66401;42.016;21.454;2023-04-25T04:51:16;97521.56;;;12.08;86.89
62789;BME280;66401;42.016;21.454;2023-04-25T04:53:41;97521.03;;;12.17;85.96
62789;BME280;66401;42.016;21.454;2023-04-25T04:56:07;97518.28;;;11.94;88.07
62789;BME280;66401;42.016;21.454;2023-04-25T04:58:33;97522.22;;;11.85;87.87
62789;BME280;66401;42.016;21.454;2023-04-25T05:00:58;97524.63;;;11.43;89.27
62789;BME280;66401;42.016;21.454;2023-04-25T05:03:23;97532.72;;;11.35;90.56
62789;BME280;66401;42.016;21.454;2023-04-25T05:05:49;97528.09;;;11.55;88.71
62789;BME280;66401;42.016;21.454;2023-04-25T05:08:15;97527.00;;;11.88;87.20
62789;BME280;66401;42.016;21.454;2023-04-25T05:10:40;97533.31;;;11.98;84.74
62789;BME280;66401;42.016;21.454;2023-04-25T05:13:07;97532.00;;;12.08;83.97
62789;BME280;66401;42.016;21.454;2023-04-25T05:15:32;97539.09;;;12.19;84.57
62789;BME280;66401;42.016;21.454;2023-04-25T05:17:57;97539.16;;;12.12;84.79
62789;BME280;66401;42.016;21.454;2023-04-25T05:20:23;97534.00;;;12.06;85.41
62789;BME280;66401;42.016;21.454;2023-04-25T05:22:48;97529.91;;;11.98;85.87
62789;BME280;66401;42.016;21.454;2023-04-25T05:25:14;97531.63;;;12.04;87.06
62789;BME280;66401;42.016;21.454;2023-04-25T05:27:39;97532.50;;;11.98;86.71
62789;BME280;66401;42.016;21.454;2023-04-25T05:30:05;97522.97;;;12.22;83.31
62789;BME280;66401;42.016;21.454;2023-04-25T05:32:32;97529.72;;;12.29;84.26
62789;BME280;66401;42.016;21.454;2023-04-25T05:34:57;97506.75;;;12.50;82.00
62789;BME280;66401;42.016;21.454;2023-04-25T05:37:23;97519.88;;;12.73;81.29
62789;BME280;66401;42.016;21.454;2023-04-25T05:39:48;97514.56;;;12.80;81.14
62789;BME280;66401;42.016;21.454;2023-04-25T05:42:13;97517.16;;;12.80;82.05
62789;BME280;66401;42.016;21.454;2023-04-25T05:44:39;97520.06;;;12.60;82.41
62789;BME280;66401;42.016;21.454;2023-04-25T05:47:04;97517.13;;;12.56;83.00
62789;BME280;66401;42.016;21.454;2023-04-25T05:49:30;97525.38;;;11.87;87.97
62789;BME280;66401;42.016;21.454;2023-04-25T05:51:56;97526.00;;;11.64;89.33
62789;BME280;66401;42.016;21.454;2023-04-25T05:54:21;97527.56;;;11.46;90.81
62789;BME280;66401;42.016;21.454;2023-04-25T05:56:46;97516.78;;;11.43;89.71
62789;BME280;66401;42.016;21.454;2023-04-25T05:59:12;97504.63;;;11.73;90.75
62789;BME280;66401;42.016;21.454;2023-04-25T06:01:37;97513.50;;;11.72;89.43
62789;BME280;66401;42.016;21.454;2023-04-25T06:04:03;97513.34;;;12.22;88.58
62789;BME280;66401;42.016;21.454;2023-04-25T06:06:28;97505.69;;;11.91;89.01
62789;BME280;66401;42.016;21.454;2023-04-25T06:08:54;97499.97;;;12.00;88.22
62789;BME280;66401;42.016;21.454;2023-04-25T06:11:20;97509.91;;;12.40;86.75
62789;BME280;66401;42.016;21.454;2023-04-25T06:13:46;97503.13;;;12.02;89.66
62789;BME280;66401;42.016;21.454;2023-04-25T06:16:11;97509.13;;;12.51;86.04
62789;BME280;66401;42.016;21.454;2023-04-25T06:18:37;97511.03;;;12.74;83.08
62789;BME280;66401;42.016;21.454;2023-04-25T06:21:02;97521.63;;;11.83;87.79
62789;BME280;66401;42.016;21.454;2023-04-25T06:23:28;97514.38;;;12.03;87.79
62789;BME280;66401;42.016;21.454;2023-04-25T06:25:53;97516.41;;;12.01;86.40
62789;BME280;66401;42.016;21.454;2023-04-25T06:28:19;97512.84;;;12.14;87.52
62789;BME280;66401;42.016;21.454;2023-04-25T06:30:47;97492.91;;;12.19;86.67
62789;BME280;66401;42.016;21.454;2023-04-25T06:33:12;97517.72;;;13.59;82.15
62789;BME280;66401;42.016;21.454;2023-04-25T06:35:38;97515.22;;;13.40;80.54
62789;BME280;66401;42.016;21.454;2023-04-25T06:38:03;97506.88;;;13.08;82.60
62789;BME280;66401;42.016;21.454;2023-04-25T06:40:29;97524.31;;;13.61;81.16
62789;BME280;66401;42.016;21.454;2023-04-25T06:42:54;97533.63;;;14.32;77.07
62789;BME280;66401;42.016;21.454;2023-04-25T06:45:20;97526.59;;;14.62;74.62
62789;BME280;66401;42.016;21.454;2023-04-25T06:47:45;97509.56;;;13.95;77.16
62789;BME280;66401;42.016;21.454;2023-04-25T06:50:11;97511.09;;;13.91;77.58
62789;BME280;66401;42.016;21.454;2023-04-25T06:52:37;97515.53;;;13.79;79.46
62789;BME280;66401;42.016;21.454;2023-04-25T06:55:02;97510.09;;;13.45;80.66
62789;BME280;66401;42.016;21.454;2023-04-25T06:57:29;97511.41;;;12.48;83.17
62789;BME280;66401;42.016;21.454;2023-04-25T06:59:54;97501.97;;;13.12;81.60
62789;BME280;66401;42.016;21.454;2023-04-25T07:02:20;97495.97;;;13.11;81.47
62789;BME280;66401;42.016;21.454;2023-04-25T07:04:47;97470.16;;;13.50;80.40
62789;BME280;66401;42.016;21.454;2023-04-25T07:07:13;97497.56;;;13.12;78.14
62789;BME280;66401;42.016;21.454;2023-04-25T07:09:38;97477.09;;;12.98;79.09
62789;BME280;66401;42.016;21.454;2023-04-25T07:12:04;97505.53;;;13.64;78.09
62789;BME280;66401;42.016;21.454;2023-04-25T07:14:30;97500.22;;;14.11;75.14
62789;BME280;66401;42.016;21.454;2023-04-25T07:16:55;97506.09;;;14.58;74.59
62789;BME280;66401;42.016;21.454;2023-04-25T07:19:22;97501.19;;;14.79;71.72
62789;BME280;66401;42.016;21.454;2023-04-25T07:21:49;97498.97;;;14.87;71.90
62789;BME280;66401;42.016;21.454;2023-04-25T07:24:15;97496.88;;;14.73;72.21
62789;BME280;66401;42.016;21.454;2023-04-25T07:26:40;97497.06;;;15.16;73.43
62789;BME280;66401;42.016;21.454;2023-04-25T07:29:06;97495.09;;;14.90;71.58
62789;BME280;66401;42.016;21.454;2023-04-25T07:31:31;97500.84;;;15.42;68.97
62789;BME280;66401;42.016;21.454;2023-04-25T07:33:56;97497.75;;;15.45;68.57
62789;BME280;66401;42.016;21.454;2023-04-25T07:36:22;97492.81;;;15.88;67.39
62789;BME280;66401;42.016;21.454;2023-04-25T07:38:47;97481.56;;;16.14;66.38
62789;BME280;66401;42.016;21.454;2023-04-25T07:41:13;97492.84;;;15.71;66.89
62789;BME280;66401;42.016;21.454;2023-04-25T07:43:38;97496.09;;;16.00;67.39
62789;BME280;66401;42.016;21.454;2023-04-25T07:46:04;97491.03;;;15.71;66.49
62789;BME280;66401;42.016;21.454;2023-04-25T07:48:30;97452.41;;;15.67;66.65
62789;BME280;66401;42.016;21.454;2023-04-25T07:50:55;97487.84;;;15.91;63.24
62789;BME280;66401;42.016;21.454;2023-04-25T07:53:21;97492.41;;;16.45;64.89
62789;BME280;66401;42.016;21.454;2023-04-25T07:55:48;97485.88;;;16.74;61.90
62789;BME280;66401;42.016;21.454;2023-04-25T07:58:13;97494.47;;;15.55;64.25
62789;BME280;66401;42.016;21.454;2023-04-25T08:00:40;97490.41;;;15.09;63.16
62789;BME280;66401;42.016;21.454;2023-04-25T08:03:06;97496.25;;;15.33;64.50
62789;BME280;66401;42.016;21.454;2023-04-25T08:05:32;97468.56;;;15.81;63.29
62789;BME280;66401;42.016;21.454;2023-04-25T08:07:58;97493.28;;;16.28;60.89
62789;BME280;66401;42.016;21.454;2023-04-25T08:10:24;97483.19;;;16.42;62.61
62789;BME280;66401;42.016;21.454;2023-04-25T08:12:50;97476.94;;;16.75;60.14
62789;BME280;66401;42.016;21.454;2023-04-25T08:15:15;97486.06;;;16.41;60.23
62789;BME280;66401;42.016;21.454;2023-04-25T08:17:41;97476.53;;;16.35;60.69
62789;BME280;66401;42.016;21.454;2023-04-25T08:20:06;97475.22;;;15.88;62.13
62789;BME280;66401;42.016;21.454;2023-04-25T08:22:32;97479.41;;;16.11;62.54
62789;BME280;66401;42.016;21.454;2023-04-25T08:24:58;97475.41;;;16.57;63.88
62789;BME280;66401;42.016;21.454;2023-04-25T08:27:23;97485.81;;;17.01;60.04
62789;BME280;66401;42.016;21.454;2023-04-25T08:29:49;97481.44;;;17.12;59.00
62789;BME280;66401;42.016;21.454;2023-04-25T08:32:15;97476.44;;;17.58;57.76
62789;BME280;66401;42.016;21.454;2023-04-25T08:34:40;97475.97;;;18.39;55.95
62789;BME280;66401;42.016;21.454;2023-04-25T08:37:08;97480.78;;;18.87;55.22
62789;BME280;66401;42.016;21.454;2023-04-25T08:39:38;97491.59;;;18.66;53.99
62789;BME280;66401;42.016;21.454;2023-04-25T08:42:06;97480.53;;;18.79;53.28
62789;BME280;66401;42.016;21.454;2023-04-25T08:44:34;97485.03;;;18.83;52.31
62789;BME280;66401;42.016;21.454;2023-04-25T08:47:04;97490.03;;;18.65;55.10
62789;BME280;66401;42.016;21.454;2023-04-25T08:49:33;97486.81;;;17.69;60.52
62789;BME280;66401;42.016;21.454;2023-04-25T08:52:02;97480.97;;;18.40;55.36
62789;BME280;66401;42.016;21.454;2023-04-25T08:54:30;97477.31;;;18.56;53.16
62789;BME280;66401;42.016;21.454;2023-04-25T08:56:57;97474.13;;;18.49;55.28
62789;BME280;66401;42.016;21.454;2023-04-25T08:59:25;97478.16;;;17.84;58.21
62789;BME280;66401;42.016;21.454;2023-04-25T09:01:51;97473.97;;;17.88;58.23
62789;BME280;66401;42.016;21.454;2023-04-25T09:04:18;97469.09;;;17.65;56.86
62789;BME280;66401;42.016;21.454;2023-04-25T09:06:46;97466.31;;;17.77;58.42
62789;BME280;66401;42.016;21.454;2023-04-25T09:09:11;97467.72;;;18.10;56.58
62789;BME280;66401;42.016;21.454;2023-04-25T09:11:37;97470.34;;;17.47;57.52
62789;BME280;66401;42.016;21.454;2023-04-25T09:14:19;97460.28;;;17.86;57.67
62789;BME280;66401;42.016;21.454;2023-04-25T09:16:58;97447.22;;;18.32;56.80
62789;BME280;66401;42.016;21.454;2023-04-25T09:19:32;97444.09;;;18.60;53.11
62789;BME280;66401;42.016;21.454;2023-04-25T09:22:02;97440.91;;;18.38;54.57
62789;BME280;66401;42.016;21.454;2023-04-25T09:24:36;97448.88;;;18.94;53.75
62789;BME280;66401;42.016;21.454;2023-04-25T09:27:10;97453.88;;;19.01;51.39
62789;BME280;66401;42.016;21.454;2023-04-25T09:29:37;97446.66;;;19.47;54.42
62789;BME280;66401;42.016;21.454;2023-04-25T09:34:42;97438.69;;;19.67;49.91
62789;BME280;66401;42.016;21.454;2023-04-25T09:37:11;97431.69;;;18.36;52.78
62789;BME280;66401;42.016;21.454;2023-04-25T09:39:37;97423.66;;;17.95;53.15
62789;BME280;66401;42.016;21.454;2023-04-25T09:42:04;97433.50;;;18.25;51.89
62789;BME280;66401;42.016;21.454;2023-04-25T09:44:30;97417.47;;;18.67;50.82
62789;BME280;66401;42.016;21.454;2023-04-25T09:46:55;97410.38;;;18.83;51.56
62789;BME280;66401;42.016;21.454;2023-04-25T09:49:21;97411.38;;;19.07;49.60
62789;BME280;66401;42.016;21.454;2023-04-25T09:51:59;97407.34;;;19.35;51.24
62789;BME280;66401;42.016;21.454;2023-04-25T09:54:25;97398.72;;;18.18;50.95
62789;BME280;66401;42.016;21.454;2023-04-25T09:56:52;97405.56;;;18.49;53.03
62789;BME280;66401;42.016;21.454;2023-04-25T09:59:22;97396.91;;;18.84;50.19
62789;BME280;66401;42.016;21.454;2023-04-25T10:01:49;97398.19;;;18.62;50.84
62789;BME280;66401;42.016;21.454;2023-04-25T10:04:20;97387.91;;;18.96;49.24
62789;BME280;66401;42.016;21.454;2023-04-25T10:06:49;97390.25;;;19.07;47.45
62789;BME280;66401;42.016;21.454;2023-04-25T10:09:16;97375.38;;;19.42;48.73
62789;BME280;66401;42.016;21.454;2023-04-25T10:11:46;97372.66;;;19.67;46.70
62789;BME280;66401;42.016;21.454;2023-04-25T10:14:13;97365.31;;;19.49;47.61
62789;BME280;66401;42.016;21.454;2023-04-25T10:16:40;97368.53;;;19.41;46.24
62789;BME280;66401;42.016;21.454;2023-04-25T10:19:07;97368.00;;;19.98;46.12
62789;BME280;66401;42.016;21.454;2023-04-25T10:21:33;97353.81;;;20.23;46.22
62789;BME280;66401;42.016;21.454;2023-04-25T10:24:02;97350.81;;;20.35;46.37
62789;BME280;66401;42.016;21.454;2023-04-25T10:26:28;97349.69;;;21.04;48.68
62789;BME280;66401;42.016;21.454;2023-04-25T10:28:59;97351.09;;;21.21;46.54
62789;BME280;66401;42.016;21.454;2023-04-25T10:31:26;97352.41;;;21.23;43.62
62789;BME280;66401;42.016;21.454;2023-04-25T10:33:51;97333.28;;;21.02;42.13
62789;BME280;66401;42.016;21.454;2023-04-25T10:36:20;97327.31;;;20.92;43.35
62789;BME280;66401;42.016;21.454;2023-04-25T10:38:50;97328.56;;;20.75;43.95
62789;BME280;66401;42.016;21.454;2023-04-25T10:41:21;97333.78;;;20.80;43.57
62789;BME280;66401;42.016;21.454;2023-04-25T10:43:49;97322.97;;;21.01;42.19
62789;BME280;66401;42.016;21.454;2023-04-25T10:46:27;97313.59;;;21.13;43.61
62789;BME280;66401;42.016;21.454;2023-04-25T10:48:56;97310.53;;;21.25;41.39
62789;BME280;66401;42.016;21.454;2023-04-25T10:56:21;97301.41;;;21.36;42.76
62789;BME280;66401;42.016;21.454;2023-04-25T10:58:47;97300.97;;;21.05;39.88
62789;BME280;66401;42.016;21.454;2023-04-25T11:01:13;97303.31;;;20.83;40.20
62789;BME280;66401;42.016;21.454;2023-04-25T11:03:43;97295.19;;;21.46;40.10
62789;BME280;66401;42.016;21.454;2023-04-25T11:06:29;97293.19;;;20.32;41.03
62789;BME280;66401;42.016;21.454;2023-04-25T11:08:57;97293.09;;;19.79;42.30
62789;BME280;66401;42.016;21.454;2023-04-25T11:11:22;97289.09;;;19.82;40.84
62789;BME280;66401;42.016;21.454;2023-04-25T11:13:49;97291.09;;;20.00;39.36
62789;BME280;66401;42.016;21.454;2023-04-25T11:16:16;97283.34;;;20.43;40.17
62789;BME280;66401;42.016;21.454;2023-04-25T11:18:42;97282.94;;;20.25;39.36
62789;BME280;66401;42.016;21.454;2023-04-25T11:21:08;97281.34;;;20.82;34.20
62789;BME280;66401;42.016;21.454;2023-04-25T11:23:34;97279.09;;;21.42;32.45
62789;BME280;66401;42.016;21.454;2023-04-25T11:26:00;97279.75;;;22.05;31.80
62789;BME280;66401;42.016;21.454;2023-04-25T11:28:26;97281.25;;;22.30;30.94
62789;BME280;66401;42.016;21.454;2023-04-25T11:30:52;97267.28;;;21.73;30.51
62789;BME280;66401;42.016;21.454;2023-04-25T11:33:18;97274.47;;;21.29;30.63
62789;BME280;66401;42.016;21.454;2023-04-25T11:35:47;97278.75;;;21.25;31.75
62789;BME280;66401;42.016;21.454;2023-04-25T11:38:13;97275.38;;;21.43;32.05
62789;BME280;66401;42.016;21.454;2023-04-25T11:40:39;97273.56;;;21.39;33.59
62789;BME280;66401;42.016;21.454;2023-04-25T11:43:05;97284.13;;;20.96;32.47
62789;BME280;66401;42.016;21.454;2023-04-25T11:45:31;97271.06;;;21.05;31.92
62789;BME280;66401;42.016;21.454;2023-04-25T11:47:56;97264.94;;;20.85;31.13
62789;BME280;66401;42.016;21.454;2023-04-25T11:50:22;97271.91;;;20.76;32.99
62789;BME280;66401;42.016;21.454;2023-04-25T11:52:47;97269.03;;;20.44;32.57
62789;BME280;66401;42.016;21.454;2023-04-25T11:55:18;97267.41;;;20.19;35.14
62789;BME280;66401;42.016;21.454;2023-04-25T11:57:45;97275.75;;;19.97;35.65
62789;BME280;66401;42.016;21.454;2023-04-25T12:00:13;97261.88;;;19.81;35.75
62789;BME280;66401;42.016;21.454;2023-04-25T12:02:43;97273.59;;;19.65;35.62
62789;BME280;66401;42.016;21.454;2023-04-25T12:05:10;97267.06;;;20.25;35.68
62789;BME280;66401;42.016;21.454;2023-04-25T12:07:36;97262.72;;;20.40;34.17
62789;BME280;66401;42.016;21.454;2023-04-25T12:10:13;97272.63;;;20.58;34.38
62789;BME280;66401;42.016;21.454;2023-04-25T12:12:42;97270.63;;;20.45;34.22
62789;BME280;66401;42.016;21.454;2023-04-25T12:15:16;97232.84;;;20.68;34.09
62789;BME280;66401;42.016;21.454;2023-04-25T12:17:51;97259.00;;;20.70;33.04
62789;BME280;66401;42.016;21.454;2023-04-25T12:20:23;97257.09;;;20.99;33.77
62789;BME280;66401;42.016;21.454;2023-04-25T12:22:49;97254.28;;;20.91;33.07
62789;BME280;66401;42.016;21.454;2023-04-25T12:25:37;97252.63;;;20.71;32.98
62789;BME280;66401;42.016;21.454;2023-04-25T12:28:23;97248.72;;;21.11;35.03
62789;BME280;66401;42.016;21.454;2023-04-25T12:30:56;97257.69;;;21.15;32.89
62789;BME280;66401;42.016;21.454;2023-04-25T12:33:22;97265.56;;;21.20;34.43
62789;BME280;66401;42.016;21.454;2023-04-25T12:35:48;97251.31;;;21.16;33.64
62789;BME280;66401;42.016;21.454;2023-04-25T12:40:51;97244.25;;;21.68;32.53
62789;BME280;66401;42.016;21.454;2023-04-25T12:43:17;97242.69;;;21.67;32.42
62789;BME280;66401;42.016;21.454;2023-04-25T12:45:50;97232.03;;;21.34;33.66
62789;BME280;66401;42.016;21.454;2023-04-25T12:48:16;97222.97;;;20.98;32.99
62789;BME280;66401;42.016;21.454;2023-04-25T12:50:42;97220.53;;;21.20;33.70
62789;BME280;66401;42.016;21.454;2023-04-25T12:53:07;97215.75;;;20.26;33.96
62789;BME280;66401;42.016;21.454;2023-04-25T12:55:33;97218.53;;;20.69;34.03
62789;BME280;66401;42.016;21.454;2023-04-25T12:57:59;97215.06;;;20.93;32.66